createdAt,value
2022-12-29T00:02:17.854Z,99008.57
2022-12-29T00:04:44.853Z,99007.48
2022-12-29T00:07:11.847Z,99011.42
2022-12-29T00:09:38.909Z,99009.77
2022-12-29T00:12:06.068Z,99011.99
2022-12-29T00:14:51.746Z,99004.49
2022-12-29T00:17:19.684Z,99002.88
2022-12-29T00:20:05.502Z,99002.23
2022-12-29T00:22:51.197Z,99004.35
2022-12-29T00:25:36.949Z,99002.88
2022-12-29T00:28:22.782Z,99003.02
2022-12-29T00:31:08.541Z,99001.98
2022-12-29T00:33:54.355Z,99005.53
2022-12-29T00:36:24.388Z,99003.99
2022-12-29T00:39:12.467Z,99002.42
2022-12-29T00:41:58.032Z,99000.02
2022-12-29T00:44:24.959Z,98999.42
2022-12-29T00:46:51.799Z,98999.54
2022-12-29T00:49:34.340Z,98994.20
2022-12-29T00:52:09.133Z,98997.04
2022-12-29T00:54:37.452Z,98996.42
2022-12-29T00:57:04.988Z,99005.85
2022-12-29T00:59:31.948Z,99002.91
2022-12-29T01:01:59.077Z,99006.19
2022-12-29T01:04:26.571Z,99005.81
2022-12-29T01:06:53.880Z,99001.32
2022-12-29T01:09:39.391Z,98991.84
2022-12-29T01:12:06.757Z,98991.97
2022-12-29T01:14:34.854Z,98985.46
2022-12-29T01:17:01.998Z,98980.92
2022-12-29T01:19:28.921Z,98973.46
2022-12-29T01:21:57.030Z,98971.41
2022-12-29T01:24:24.013Z,98964.63
2022-12-29T01:26:50.994Z,98958.94
2022-12-29T01:29:18.139Z,98961.79
2022-12-29T01:31:46.490Z,98957.95
2022-12-29T01:34:14.250Z,98952.31
2022-12-29T01:36:41.504Z,98953.80
2022-12-29T01:39:08.355Z,98955.77
2022-12-29T01:41:35.793Z,98945.61
2022-12-29T01:44:03.208Z,98940.90
2022-12-29T01:46:40.075Z,98937.57
2022-12-29T01:49:10.931Z,98937.13
2022-12-29T01:51:40.412Z,98936.04
2022-12-29T01:54:10.736Z,98941.00
2022-12-29T01:56:38.934Z,98939.13
2022-12-29T01:59:09.416Z,98940.84
2022-12-29T02:01:36.934Z,98938.17
2022-12-29T02:04:04.323Z,98934.09
2022-12-29T02:06:37.408Z,98930.27
2022-12-29T02:09:04.440Z,98926.58
2022-12-29T02:11:31.656Z,98928.91
2022-12-29T02:14:01.962Z,98931.09
2022-12-29T02:16:59.321Z,98928.85
2022-12-29T02:19:47.997Z,98928.53
2022-12-29T02:23:01.818Z,98927.70
2022-12-29T02:25:50.358Z,98922.44
2022-12-29T02:28:41.491Z,98919.57
2022-12-29T02:31:47.196Z,98923.86
2022-12-29T02:34:25.629Z,98922.96
2022-12-29T02:37:23.205Z,98926.36
2022-12-29T02:40:09.113Z,98927.84
2022-12-29T02:42:59.280Z,98928.35
2022-12-29T02:45:47.714Z,98925.17
2022-12-29T02:48:31.744Z,98928.65
2022-12-29T02:51:04.206Z,98934.39
2022-12-29T02:53:52.732Z,98928.59
2022-12-29T02:56:19.740Z,98926.58
2022-12-29T02:58:47.713Z,98926.75
2022-12-29T03:02:13.055Z,98923.02
2022-12-29T03:04:48.649Z,98916.10
2022-12-29T03:07:22.104Z,98913.68
2022-12-29T03:10:26.539Z,98906.45
2022-12-29T03:13:23.635Z,98901.81
2022-12-29T03:16:15.298Z,98907.27
2022-12-29T03:18:44.531Z,98914.37
2022-12-29T03:21:44.034Z,98911.71
2022-12-29T03:24:11.934Z,98905.60
2022-12-29T03:26:39.179Z,98910.36
2022-12-29T03:29:06.065Z,98909.29
2022-12-29T03:31:33.658Z,98908.25
2022-12-29T03:34:00.523Z,98903.61
2022-12-29T03:37:01.722Z,98903.17
2022-12-29T03:39:29.810Z,98895.73
2022-12-29T03:41:59.895Z,98890.40
2022-12-29T03:44:34.669Z,98891.44
2022-12-29T03:47:01.686Z,98889.88
2022-12-29T03:49:28.817Z,98885.40
2022-12-29T03:51:55.688Z,98885.13
2022-12-29T03:54:22.893Z,98888.10
2022-12-29T03:56:50.044Z,98888.05
2022-12-29T03:59:20.046Z,98890.79
2022-12-29T04:01:47.652Z,98888.11
2022-12-29T04:04:15.188Z,98885.62
2022-12-29T04:06:42.352Z,98880.23
2022-12-29T04:09:10.809Z,98876.70
2022-12-29T04:11:41.997Z,98870.31
2022-12-29T04:14:08.915Z,98865.88
2022-12-29T04:16:36.932Z,98869.27
2022-12-29T04:19:07.178Z,98870.23
2022-12-29T04:21:35.583Z,98870.58
2022-12-29T04:24:02.652Z,98871.33
2022-12-29T04:26:31.480Z,98864.04
2022-12-29T04:29:12.725Z,98868.38
2022-12-29T04:32:11.983Z,98863.66
2022-12-29T04:34:44.737Z,98864.27
2022-12-29T04:37:12.352Z,98872.84
2022-12-29T04:39:39.478Z,98869.09
2022-12-29T04:42:07.675Z,98874.20
2022-12-29T04:44:37.623Z,98875.77
2022-12-29T04:47:14.094Z,98881.61
2022-12-29T04:50:01.121Z,98876.71
2022-12-29T04:52:44.222Z,98882.61
2022-12-29T04:55:13.310Z,98880.48
2022-12-29T04:57:42.924Z,98883.58
2022-12-29T05:00:13.864Z,98885.09
2022-12-29T05:02:41.039Z,98883.58
2022-12-29T05:05:09.102Z,98880.35
2022-12-29T05:07:40.588Z,98878.82
2022-12-29T05:10:08.506Z,98883.52
2022-12-29T05:12:36.600Z,98891.11
2022-12-29T05:15:04.919Z,98901.59
2022-12-29T05:17:32.155Z,98903.87
2022-12-29T05:19:59.022Z,98902.15
2022-12-29T05:22:26.205Z,98905.03
2022-12-29T05:24:54.899Z,98907.25
2022-12-29T05:27:23.190Z,98907.90
2022-12-29T05:30:01.214Z,98905.88
2022-12-29T05:32:28.380Z,98911.92
2022-12-29T05:34:55.285Z,98905.22
2022-12-29T05:37:22.657Z,98902.04
2022-12-29T05:39:49.876Z,98895.15
2022-12-29T05:42:16.894Z,98896.83
2022-12-29T05:45:08.293Z,98895.77
2022-12-29T05:47:53.827Z,98893.29
2022-12-29T05:50:30.260Z,98893.11
2022-12-29T05:53:12.142Z,98885.35
2022-12-29T05:55:45.041Z,98883.30
2022-12-29T05:58:14.377Z,98885.77
2022-12-29T06:00:41.832Z,98880.38
2022-12-29T06:03:09.850Z,98879.43
2022-12-29T06:05:37.828Z,98870.38
2022-12-29T06:08:05.092Z,98869.77
2022-12-29T06:10:34.480Z,98859.79
2022-12-29T06:13:06.554Z,98855.67
2022-12-29T06:15:37.253Z,98855.02
2022-12-29T06:18:06.735Z,98853.30
2022-12-29T06:20:35.915Z,98852.40
2022-12-29T06:23:04.867Z,98851.74
2022-12-29T06:25:33.383Z,98851.33
2022-12-29T06:28:01.071Z,98860.23
2022-12-29T06:30:27.999Z,98859.33
2022-12-29T06:32:55.550Z,98861.77
2022-12-29T06:35:23.536Z,98864.61
2022-12-29T06:37:51.736Z,98861.73
2022-12-29T06:40:18.676Z,98862.65
2022-12-29T06:43:11.904Z,98864.38
2022-12-29T06:45:57.513Z,98872.77
2022-12-29T06:48:24.947Z,98875.71
2022-12-29T06:50:51.898Z,98872.50
2022-12-29T06:53:18.778Z,98870.33
2022-12-29T06:55:45.759Z,98870.65
2022-12-29T06:58:12.786Z,98868.03
2022-12-29T07:00:40.607Z,98872.54
2022-12-29T07:03:07.613Z,98870.71
2022-12-29T07:05:34.716Z,98870.44
2022-12-29T07:08:01.950Z,98869.42
2022-12-29T07:10:29.115Z,98870.34
2022-12-29T07:12:56.279Z,98875.45
2022-12-29T07:15:23.328Z,98873.08
2022-12-29T07:17:53.087Z,98868.32
2022-12-29T07:20:26.234Z,98865.69
2022-12-29T07:22:54.530Z,98863.40
2022-12-29T07:25:21.612Z,98864.25
2022-12-29T07:27:48.444Z,98866.20
2022-12-29T07:30:15.491Z,98871.62
2022-12-29T07:32:42.717Z,98871.66
2022-12-29T07:35:10.637Z,98873.80
2022-12-29T07:37:37.555Z,98873.73
2022-12-29T07:40:04.858Z,98872.14
2022-12-29T07:42:34.317Z,98866.59
2022-12-29T07:45:01.194Z,98868.96
2022-12-29T07:47:37.170Z,98859.59
2022-12-29T07:50:04.766Z,98856.66
2022-12-29T07:53:56.445Z,98849.15
2022-12-29T07:56:23.812Z,98846.98
2022-12-29T07:58:50.692Z,98849.64
2022-12-29T08:01:17.647Z,98846.45
2022-12-29T08:03:46.301Z,98845.62
2022-12-29T08:06:13.346Z,98846.69
2022-12-29T08:08:40.239Z,98840.66
2022-12-29T08:11:07.336Z,98837.08
2022-12-29T08:13:34.249Z,98831.65
2022-12-29T08:16:04.859Z,98835.04
2022-12-29T08:18:32.008Z,98831.58
2022-12-29T08:21:03.813Z,98826.66
2022-12-29T08:23:31.347Z,98827.26
2022-12-29T08:26:03.091Z,98831.45
2022-12-29T08:28:30.193Z,98824.66
2022-12-29T08:31:01.697Z,98833.14
2022-12-29T08:33:29.327Z,98832.42
2022-12-29T08:36:03.959Z,98831.42
2022-12-29T08:38:30.943Z,98831.58
2022-12-29T08:40:58.777Z,98834.31
2022-12-29T08:43:27.739Z,98835.19
2022-12-29T08:45:54.652Z,98838.09
2022-12-29T08:48:23.246Z,98833.76
2022-12-29T08:50:50.827Z,98836.08
2022-12-29T08:53:18.977Z,98828.16
2022-12-29T08:55:47.496Z,98825.67
2022-12-29T08:58:15.786Z,98827.52
2022-12-29T09:00:43.837Z,98827.83
2022-12-29T09:03:11.041Z,98824.47
2022-12-29T09:05:38.210Z,98832.58
2022-12-29T09:08:05.679Z,98825.63
2022-12-29T09:10:32.559Z,98821.77
2022-12-29T09:13:00.074Z,98819.53
2022-12-29T09:15:27.144Z,98814.66
2022-12-29T09:17:54.079Z,98809.35
2022-12-29T09:20:21.454Z,98798.70
2022-12-29T09:22:48.626Z,98790.23
2022-12-29T09:25:15.844Z,98782.73
2022-12-29T09:27:43.931Z,98778.08
2022-12-29T09:30:12.345Z,98775.68
2022-12-29T09:32:44.777Z,98775.98
2022-12-29T09:35:14.085Z,98774.51
2022-12-29T09:37:41.094Z,98775.01
2022-12-29T09:40:08.456Z,98772.85
2022-12-29T09:42:36.615Z,98775.00
2022-12-29T09:45:19.379Z,98773.55
2022-12-29T09:47:46.761Z,98767.26
2022-12-29T09:50:26.673Z,98763.25
2022-12-29T09:53:45.308Z,98757.74
2022-12-29T09:56:16.307Z,98751.67
2022-12-29T09:58:48.191Z,98753.23
2022-12-29T10:01:20.774Z,98744.14
2022-12-29T10:03:49.818Z,98746.34
2022-12-29T10:06:20.736Z,98741.80
2022-12-29T10:08:58.027Z,98745.38
2022-12-29T10:11:39.936Z,98739.64
2022-12-29T10:14:26.840Z,98744.50
2022-12-29T10:17:23.781Z,98743.86
2022-12-29T10:20:12.723Z,98747.04
2022-12-29T10:22:55.118Z,98741.11
2022-12-29T10:25:27.141Z,98738.38
2022-12-29T10:27:57.197Z,98740.16
2022-12-29T10:30:24.058Z,98738.86
2022-12-29T10:32:57.143Z,98740.05
2022-12-29T10:35:26.173Z,98743.86
2022-12-29T10:38:01.073Z,98739.23
2022-12-29T10:40:39.390Z,98721.96
2022-12-29T10:43:23.750Z,98721.10
2022-12-29T10:45:50.739Z,98723.62
2022-12-29T10:48:28.512Z,98720.45
2022-12-29T10:51:02.059Z,98720.47
2022-12-29T10:53:49.682Z,98722.47
2022-12-29T10:56:29.183Z,98716.91
2022-12-29T10:58:56.953Z,98709.02
2022-12-29T11:01:24.968Z,98711.21
2022-12-29T11:04:16.640Z,98714.20
2022-12-29T11:06:43.931Z,98707.65
2022-12-29T11:09:15.488Z,98702.40
2022-12-29T11:11:43.389Z,98696.27
2022-12-29T11:14:14.647Z,98688.98
2022-12-29T11:16:42.785Z,98688.80
2022-12-29T11:19:22.175Z,98687.73
2022-12-29T11:21:49.104Z,98686.42
2022-12-29T11:24:23.559Z,98686.84
2022-12-29T11:27:17.725Z,98686.77
2022-12-29T11:29:46.041Z,98676.42
2022-12-29T11:32:22.645Z,98679.95
2022-12-29T11:34:53.171Z,98677.30
2022-12-29T11:37:31.873Z,98684.23
2022-12-29T11:40:18.564Z,98685.46
2022-12-29T11:43:23.773Z,98688.77
2022-12-29T11:45:51.240Z,98689.70
2022-12-29T11:48:19.841Z,98694.55
2022-12-29T11:50:52.470Z,98697.66
2022-12-29T11:53:26.436Z,98697.02
2022-12-29T11:56:01.796Z,98694.15
2022-12-29T11:58:30.395Z,98693.05
2022-12-29T12:00:57.269Z,98693.16
2022-12-29T12:03:24.993Z,98696.84
2022-12-29T12:05:56.001Z,98695.50
2022-12-29T12:08:36.808Z,98698.65
2022-12-29T12:11:23.813Z,98694.05
2022-12-29T12:14:29.995Z,98689.57
2022-12-29T12:17:07.390Z,98690.53
2022-12-29T12:19:44.367Z,98693.80
2022-12-29T12:22:32.999Z,98691.04
2022-12-29T12:25:35.854Z,98692.23
2022-12-29T12:28:21.561Z,98687.86
2022-12-29T12:30:51.038Z,98682.02
2022-12-29T12:33:27.150Z,98682.55
2022-12-29T12:36:15.345Z,98677.64
2022-12-29T12:39:03.729Z,98675.63
2022-12-29T12:42:12.154Z,98676.14
2022-12-29T12:44:43.065Z,98672.77
2022-12-29T12:47:42.640Z,98674.02
2022-12-29T12:50:26.383Z,98671.55
2022-12-29T12:53:05.543Z,98671.69
2022-12-29T12:55:58.009Z,98674.48
2022-12-29T12:58:34.401Z,98676.52
2022-12-29T13:01:14.944Z,98677.58
2022-12-29T13:03:44.900Z,98675.33
2022-12-29T13:06:19.734Z,98672.67
2022-12-29T13:09:01.597Z,98671.73
2022-12-29T13:11:40.220Z,98670.90
2022-12-29T13:14:13.747Z,98673.70
2022-12-29T13:17:00.108Z,98676.66
2022-12-29T13:19:46.390Z,98683.50
2022-12-29T13:22:23.697Z,98681.09
2022-12-29T13:25:16.377Z,98677.73
2022-12-29T13:27:46.466Z,98680.73
2022-12-29T13:30:20.862Z,98682.44
2022-12-29T13:33:17.696Z,98687.85
2022-12-29T13:35:54.207Z,98692.71
2022-12-29T13:38:39.621Z,98699.96
2022-12-29T13:41:12.375Z,98703.33
2022-12-29T13:43:41.087Z,98709.64
2022-12-29T13:46:11.143Z,98712.78
2022-12-29T13:48:46.890Z,98713.45
2022-12-29T13:51:14.060Z,98716.45
2022-12-29T13:54:13.288Z,98713.50
2022-12-29T13:56:44.546Z,98720.45
2022-12-29T13:59:17.742Z,98723.08
2022-12-29T14:01:48.087Z,98726.48
2022-12-29T14:04:24.794Z,98729.82
2022-12-29T14:07:01.092Z,98729.30
2022-12-29T14:09:50.104Z,98724.69
2022-12-29T14:12:35.945Z,98730.02
2022-12-29T14:15:12.037Z,98723.79
2022-12-29T14:17:45.105Z,98726.02
2022-12-29T14:20:22.438Z,98725.44
2022-12-29T14:23:11.338Z,98721.36
2022-12-29T14:26:00.897Z,98720.02
2022-12-29T14:28:31.677Z,98724.01
2022-12-29T14:31:00.029Z,98719.47
2022-12-29T14:33:29.221Z,98714.63
2022-12-29T14:35:56.598Z,98712.83
2022-12-29T14:38:28.693Z,98715.13
2022-12-29T14:41:34.358Z,98713.38
2022-12-29T14:44:08.736Z,98719.45
2022-12-29T14:46:46.983Z,98723.66
2022-12-29T14:49:17.652Z,98724.58
2022-12-29T14:51:44.657Z,98720.67
2022-12-29T14:54:53.897Z,98720.55
2022-12-29T14:57:28.077Z,98722.23
2022-12-29T14:59:59.402Z,98724.70
2022-12-29T15:02:27.821Z,98719.97
2022-12-29T15:04:54.885Z,98727.39
2022-12-29T15:07:21.749Z,98728.42
2022-12-29T15:09:53.458Z,98724.50
2022-12-29T15:12:21.783Z,98727.90
2022-12-29T15:14:55.624Z,98725.88
2022-12-29T15:17:31.073Z,98723.41
2022-12-29T15:19:59.278Z,98720.91
2022-12-29T15:22:26.392Z,98721.44
2022-12-29T15:24:53.948Z,98722.80
2022-12-29T15:27:23.169Z,98720.39
2022-12-29T15:29:57.207Z,98715.61
2022-12-29T15:32:25.940Z,98712.61
2022-12-29T15:34:54.478Z,98711.61
2022-12-29T15:37:26.407Z,98711.92
2022-12-29T15:39:55.962Z,98711.60
2022-12-29T15:42:51.128Z,98705.52
2022-12-29T15:45:18.336Z,98703.44
2022-12-29T15:47:47.567Z,98704.33
2022-12-29T15:50:25.924Z,98705.90
2022-12-29T15:52:53.166Z,98707.31
2022-12-29T15:55:22.862Z,98707.10
2022-12-29T15:57:49.787Z,98708.76
2022-12-29T16:00:26.862Z,98711.05
2022-12-29T16:02:55.142Z,98712.55
2022-12-29T16:05:22.112Z,98712.77
2022-12-29T16:07:56.947Z,98708.80
2022-12-29T16:10:42.384Z,98708.30
2022-12-29T16:13:35.490Z,98707.48
2022-12-29T16:16:14.733Z,98703.64
2022-12-29T16:18:41.631Z,98699.40
2022-12-29T16:21:17.724Z,98696.32
2022-12-29T16:23:49.324Z,98695.77
2022-12-29T16:26:20.366Z,98698.55
2022-12-29T16:29:00.598Z,98701.43
2022-12-29T16:31:40.064Z,98704.26
2022-12-29T16:34:25.472Z,98701.92
2022-12-29T16:37:05.830Z,98701.05
2022-12-29T16:39:34.067Z,98706.47
2022-12-29T16:42:01.096Z,98703.69
2022-12-29T16:44:29.694Z,98699.22
2022-12-29T16:47:08.460Z,98699.58
2022-12-29T16:49:35.567Z,98695.38
2022-12-29T16:52:02.570Z,98695.89
2022-12-29T16:54:36.563Z,98696.52
2022-12-29T16:57:03.734Z,98699.94
2022-12-29T16:59:36.397Z,98699.05
2022-12-29T17:02:16.678Z,98701.59
2022-12-29T17:04:43.957Z,98699.23
2022-12-29T17:07:21.639Z,98693.00
2022-12-29T17:09:48.570Z,98694.13
2022-12-29T17:12:18.328Z,98693.45
2022-12-29T17:14:45.843Z,98696.65
2022-12-29T17:17:26.041Z,98694.73
2022-12-29T17:19:53.976Z,98696.92
2022-12-29T17:22:25.871Z,98699.83
2022-12-29T17:24:57.368Z,98702.24
2022-12-29T17:27:39.406Z,98698.44
2022-12-29T17:30:14.402Z,98699.57
2022-12-29T17:32:41.737Z,98701.01
2022-12-29T17:35:14.748Z,98702.98
2022-12-29T17:37:41.915Z,98703.64
2022-12-29T17:40:20.806Z,98700.19
2022-12-29T17:42:49.061Z,98696.46
2022-12-29T17:45:25.130Z,98693.70
2022-12-29T17:47:52.596Z,98696.41
2022-12-29T17:50:30.314Z,98697.36
2022-12-29T17:53:02.320Z,98698.17
2022-12-29T17:55:36.647Z,98695.51
2022-12-29T17:58:25.493Z,98689.96
2022-12-29T18:00:54.133Z,98685.00
2022-12-29T18:03:25.167Z,98684.83
2022-12-29T18:05:52.567Z,98683.23
2022-12-29T18:08:19.537Z,98686.55
2022-12-29T18:10:46.505Z,98690.00
2022-12-29T18:13:20.978Z,98689.36
2022-12-29T18:15:48.302Z,98689.30
2022-12-29T18:18:17.175Z,98687.64
2022-12-29T18:20:45.607Z,98681.77
2022-12-29T18:23:19.930Z,98682.17
2022-12-29T18:25:55.474Z,98681.83
2022-12-29T18:28:23.637Z,98675.80
2022-12-29T18:30:52.359Z,98675.63
2022-12-29T18:33:23.431Z,98671.15
2022-12-29T18:35:54.844Z,98671.52
2022-12-29T18:38:21.918Z,98672.65
2022-12-29T18:40:48.944Z,98671.79
2022-12-29T18:43:17.356Z,98669.54
2022-12-29T18:45:47.291Z,98670.30
2022-12-29T18:48:14.611Z,98671.88
2022-12-29T18:50:41.902Z,98666.19
2022-12-29T18:53:27.388Z,98665.89
2022-12-29T18:55:54.528Z,98661.07
2022-12-29T18:58:21.482Z,98660.71
2022-12-29T20:51:13.069Z,98655.91
2022-12-29T20:53:40.322Z,98650.85
2022-12-29T20:56:10.315Z,98656.30
2022-12-29T20:58:52.517Z,98654.76
2022-12-29T21:01:24.999Z,98659.32
2022-12-29T21:03:54.081Z,98655.83
2022-12-29T21:06:21.675Z,98649.41
2022-12-29T21:08:50.174Z,98653.14
2022-12-29T21:11:17.725Z,98649.96
2022-12-29T21:13:47.487Z,98650.26
2022-12-29T21:16:15.328Z,98653.04
2022-12-29T21:18:42.270Z,98656.15
2022-12-29T21:21:15.836Z,98653.09
2022-12-29T21:23:42.805Z,98653.87
2022-12-29T21:26:10.753Z,98649.14
2022-12-29T21:28:38.297Z,98641.77
2022-12-29T21:31:20.023Z,98643.08
2022-12-29T21:33:47.108Z,98639.95
2022-12-29T21:36:13.994Z,98634.35
2022-12-29T21:38:41.661Z,98635.64
2022-12-29T21:41:09.805Z,98638.20
2022-12-29T21:43:36.749Z,98638.68
2022-12-29T21:46:04.307Z,98640.14
2022-12-29T21:48:31.746Z,98633.42
2022-12-29T21:51:30.619Z,98625.84
2022-12-29T21:54:19.633Z,98626.69
2022-12-29T21:56:47.146Z,98629.41
2022-12-29T21:59:33.888Z,98628.80
2022-12-29T22:02:20.243Z,98630.94
2022-12-29T22:05:05.978Z,98627.83
2022-12-29T22:07:51.677Z,98622.73
2022-12-29T22:10:37.422Z,98620.11
2022-12-29T22:13:04.585Z,98617.89
2022-12-29T22:15:35.958Z,98624.10
2022-12-29T22:18:03.407Z,98625.42
2022-12-29T22:20:31.798Z,98618.64
2022-12-29T22:22:58.844Z,98618.70
2022-12-29T22:25:25.750Z,98620.70
2022-12-29T22:27:58.550Z,98616.59
2022-12-29T22:30:29.602Z,98617.22
2022-12-29T22:32:57.359Z,98615.94
2022-12-29T22:35:24.877Z,98619.45
2022-12-29T22:37:51.714Z,98620.11
2022-12-29T22:40:19.144Z,98622.69
2022-12-29T22:42:45.988Z,98622.59
2022-12-29T22:45:12.836Z,98625.88
2022-12-29T22:47:39.924Z,98626.71
2022-12-29T22:50:07.072Z,98625.09
2022-12-29T22:52:34.454Z,98621.95
2022-12-29T22:55:06.389Z,98619.86
2022-12-29T22:57:34.897Z,98619.84
2022-12-29T23:00:02.739Z,98625.34
2022-12-29T23:02:30.601Z,98630.83
2022-12-29T23:05:05.707Z,98628.43
2022-12-29T23:07:34.042Z,98627.92
2022-12-29T23:10:00.979Z,98630.04
2022-12-29T23:12:31.592Z,98632.95
2022-12-29T23:14:58.583Z,98631.10
2022-12-29T23:17:25.618Z,98628.39
2022-12-29T23:19:52.637Z,98630.96
2022-12-29T23:22:19.803Z,98630.04
2022-12-29T23:24:47.053Z,98627.40
2022-12-29T23:27:14.051Z,98631.23
2022-12-29T23:29:41.370Z,98628.62
2022-12-29T23:32:08.424Z,98627.92
2022-12-29T23:34:35.278Z,98629.36
2022-12-29T23:37:02.188Z,98628.76
2022-12-29T23:39:29.572Z,98625.71
2022-12-29T23:41:57.480Z,98629.05
2022-12-29T23:44:24.323Z,98634.77
2022-12-29T23:46:51.260Z,98634.66
2022-12-29T23:49:18.314Z,98632.88
2022-12-29T23:51:45.166Z,98632.53
2022-12-29T23:54:11.979Z,98628.83
2022-12-29T23:56:38.795Z,98630.77
2022-12-29T23:59:06.070Z,98625.52
